sensor_id;sensor_type;location;lat;lon;timestamp;temperature;humidity
13928;DHT22;7036;50.834;4.718;2023-05-20T00:01:11;20.40;50.80
13928;DHT22;7036;50.834;4.718;2023-05-20T00:03:39;20.40;50.80
13928;DHT22;7036;50.834;4.718;2023-05-20T00:06:07;20.40;50.80
13928;DHT22;7036;50.834;4.718;2023-05-20T00:08:44;20.40;50.80
13928;DHT22;7036;50.834;4.718;2023-05-20T00:11:10;20.40;50.70
13928;DHT22;7036;50.834;4.718;2023-05-20T00:13:38;20.30;50.80
13928;DHT22;7036;50.834;4.718;2023-05-20T00:16:06;20.30;50.80
13928;DHT22;7036;50.834;4.718;2023-05-20T00:18:34;20.30;50.80
13928;DHT22;7036;50.834;4.718;2023-05-20T00:21:02;20.30;50.50
13928;DHT22;7036;50.834;4.718;2023-05-20T00:23:30;20.30;50.80
13928;DHT22;7036;50.834;4.718;2023-05-20T00:25:58;20.30;50.80
13928;DHT22;7036;50.834;4.718;2023-05-20T00:28:26;20.30;50.70
13928;DHT22;7036;50.834;4.718;2023-05-20T00:30:54;20.30;50.90
13928;DHT22;7036;50.834;4.718;2023-05-20T00:33:22;20.30;50.90
13928;DHT22;7036;50.834;4.718;2023-05-20T00:35:50;20.30;50.90
13928;DHT22;7036;50.834;4.718;2023-05-20T00:38:18;20.30;50.90
13928;DHT22;7036;50.834;4.718;2023-05-20T00:40:45;20.30;50.80
13928;DHT22;7036;50.834;4.718;2023-05-20T00:43:13;20.30;50.90
13928;DHT22;7036;50.834;4.718;2023-05-20T00:45:41;20.30;51.00
13928;DHT22;7036;50.834;4.718;2023-05-20T00:48:09;20.30;51.00
13928;DHT22;7036;50.834;4.718;2023-05-20T00:50:37;20.30;51.00
13928;DHT22;7036;50.834;4.718;2023-05-20T00:53:05;20.30;51.70
13928;DHT22;7036;50.834;4.718;2023-05-20T00:55:32;20.30;50.80
13928;DHT22;7036;50.834;4.718;2023-05-20T00:57:59;20.30;50.90
13928;DHT22;7036;50.834;4.718;2023-05-20T01:00:27;20.30;51.00
13928;DHT22;7036;50.834;4.718;2023-05-20T01:02:55;20.30;51.00
13928;DHT22;7036;50.834;4.718;2023-05-20T01:05:23;20.30;51.00
13928;DHT22;7036;50.834;4.718;2023-05-20T01:07:51;20.30;51.00
13928;DHT22;7036;50.834;4.718;2023-05-20T01:10:19;20.30;51.10
13928;DHT22;7036;50.834;4.718;2023-05-20T01:12:49;20.30;51.00
13928;DHT22;7036;50.834;4.718;2023-05-20T01:15:14;20.20;51.10
13928;DHT22;7036;50.834;4.718;2023-05-20T01:17:43;20.20;51.10
13928;DHT22;7036;50.834;4.718;2023-05-20T01:20:10;20.20;51.10
13928;DHT22;7036;50.834;4.718;2023-05-20T01:22:45;20.20;51.10
13928;DHT22;7036;50.834;4.718;2023-05-20T01:25:05;20.30;51.00
13928;DHT22;7036;50.834;4.718;2023-05-20T01:27:32;20.20;51.00
13928;DHT22;7036;50.834;4.718;2023-05-20T01:30:00;20.20;51.10
13928;DHT22;7036;50.834;4.718;2023-05-20T01:32:32;20.20;51.20
13928;DHT22;7036;50.834;4.718;2023-05-20T01:34:58;20.20;51.00
13928;DHT22;7036;50.834;4.718;2023-05-20T01:37:26;20.20;51.20
13928;DHT22;7036;50.834;4.718;2023-05-20T01:39:54;20.20;51.20
13928;DHT22;7036;50.834;4.718;2023-05-20T01:42:21;20.20;51.00
13928;DHT22;7036;50.834;4.718;2023-05-20T01:44:49;20.20;51.30
13928;DHT22;7036;50.834;4.718;2023-05-20T01:47:17;20.20;51.30
13928;DHT22;7036;50.834;4.718;2023-05-20T01:49:45;20.20;51.30
13928;DHT22;7036;50.834;4.718;2023-05-20T01:52:13;20.20;51.30
13928;DHT22;7036;50.834;4.718;2023-05-20T01:54:40;20.20;51.20
13928;DHT22;7036;50.834;4.718;2023-05-20T01:57:08;20.20;51.30
13928;DHT22;7036;50.834;4.718;2023-05-20T01:59:36;20.20;51.30
13928;DHT22;7036;50.834;4.718;2023-05-20T02:02:04;20.20;51.30
13928;DHT22;7036;50.834;4.718;2023-05-20T02:04:32;20.20;51.30
13928;DHT22;7036;50.834;4.718;2023-05-20T02:07:00;20.20;51.30
13928;DHT22;7036;50.834;4.718;2023-05-20T02:09:28;20.20;51.30
13928;DHT22;7036;50.834;4.718;2023-05-20T02:11:56;20.20;51.30
13928;DHT22;7036;50.834;4.718;2023-05-20T02:14:24;20.20;51.40
13928;DHT22;7036;50.834;4.718;2023-05-20T02:16:52;20.20;51.40
13928;DHT22;7036;50.834;4.718;2023-05-20T02:19:20;20.20;51.40
13928;DHT22;7036;50.834;4.718;2023-05-20T02:21:48;20.20;51.40
13928;DHT22;7036;50.834;4.718;2023-05-20T02:24:16;20.20;51.40
13928;DHT22;7036;50.834;4.718;2023-05-20T02:26:45;20.20;51.40
13928;DHT22;7036;50.834;4.718;2023-05-20T02:29:11;20.20;51.30
13928;DHT22;7036;50.834;4.718;2023-05-20T02:31:39;20.20;52.10
13928;DHT22;7036;50.834;4.718;2023-05-20T02:34:07;20.20;51.40
13928;DHT22;7036;50.834;4.718;2023-05-20T02:36:34;20.20;51.30
13928;DHT22;7036;50.834;4.718;2023-05-20T02:39:02;20.10;51.70
13928;DHT22;7036;50.834;4.718;2023-05-20T02:41:29;20.10;51.30
13928;DHT22;7036;50.834;4.718;2023-05-20T02:43:57;20.10;52.10
13928;DHT22;7036;50.834;4.718;2023-05-20T02:46:25;20.10;51.40
13928;DHT22;7036;50.834;4.718;2023-05-20T02:48:53;20.10;51.40
13928;DHT22;7036;50.834;4.718;2023-05-20T02:51:22;20.10;51.40
13928;DHT22;7036;50.834;4.718;2023-05-20T02:53:49;20.10;51.40
13928;DHT22;7036;50.834;4.718;2023-05-20T02:56:17;20.10;51.40
13928;DHT22;7036;50.834;4.718;2023-05-20T02:58:48;20.10;51.30
13928;DHT22;7036;50.834;4.718;2023-05-20T03:01:14;20.10;51.30
13928;DHT22;7036;50.834;4.718;2023-05-20T03:03:42;20.10;51.40
13928;DHT22;7036;50.834;4.718;2023-05-20T03:06:10;20.10;51.00
13928;DHT22;7036;50.834;4.718;2023-05-20T03:08:38;20.10;51.50
13928;DHT22;7036;50.834;4.718;2023-05-20T03:11:05;20.10;51.40
13928;DHT22;7036;50.834;4.718;2023-05-20T03:13:33;20.10;51.50
13928;DHT22;7036;50.834;4.718;2023-05-20T03:16:01;20.10;51.50
13928;DHT22;7036;50.834;4.718;2023-05-20T03:18:29;20.10;51.50
13928;DHT22;7036;50.834;4.718;2023-05-20T03:20:57;20.10;51.50
13928;DHT22;7036;50.834;4.718;2023-05-20T03:23:25;20.10;51.70
13928;DHT22;7036;50.834;4.718;2023-05-20T03:25:53;20.10;52.30
13928;DHT22;7036;50.834;4.718;2023-05-20T03:28:20;20.10;51.40
13928;DHT22;7036;50.834;4.718;2023-05-20T03:30:48;20.10;51.70
13928;DHT22;7036;50.834;4.718;2023-05-20T03:33:16;20.10;51.50
13928;DHT22;7036;50.834;4.718;2023-05-20T03:35:44;20.10;51.40
13928;DHT22;7036;50.834;4.718;2023-05-20T03:38:11;20.10;51.40
13928;DHT22;7036;50.834;4.718;2023-05-20T03:40:38;20.10;52.10
13928;DHT22;7036;50.834;4.718;2023-05-20T03:43:05;20.00;51.50
13928;DHT22;7036;50.834;4.718;2023-05-20T03:45:33;20.00;51.60
13928;DHT22;7036;50.834;4.718;2023-05-20T03:48:01;20.00;52.20
13928;DHT22;7036;50.834;4.718;2023-05-20T03:50:29;20.00;52.30
13928;DHT22;7036;50.834;4.718;2023-05-20T03:52:57;20.00;51.60
13928;DHT22;7036;50.834;4.718;2023-05-20T03:55:25;20.00;51.80
13928;DHT22;7036;50.834;4.718;2023-05-20T03:57:52;20.00;51.50
13928;DHT22;7036;50.834;4.718;2023-05-20T04:00:20;20.00;51.70
13928;DHT22;7036;50.834;4.718;2023-05-20T04:02:48;20.00;51.70
13928;DHT22;7036;50.834;4.718;2023-05-20T04:05:16;20.00;51.70
13928;DHT22;7036;50.834;4.718;2023-05-20T04:07:44;20.00;51.70
13928;DHT22;7036;50.834;4.718;2023-05-20T04:10:11;20.00;51.60
13928;DHT22;7036;50.834;4.718;2023-05-20T04:12:38;20.00;51.60
13928;DHT22;7036;50.834;4.718;2023-05-20T04:15:06;20.00;51.70
13928;DHT22;7036;50.834;4.718;2023-05-20T04:17:33;20.00;51.70
13928;DHT22;7036;50.834;4.718;2023-05-20T04:20:01;20.00;51.80
13928;DHT22;7036;50.834;4.718;2023-05-20T04:22:29;20.00;51.80
13928;DHT22;7036;50.834;4.718;2023-05-20T04:24:57;20.00;52.40
13928;DHT22;7036;50.834;4.718;2023-05-20T04:27:25;20.00;51.80
13928;DHT22;7036;50.834;4.718;2023-05-20T04:29:53;20.00;51.90
13928;DHT22;7036;50.834;4.718;2023-05-20T04:32:21;20.00;51.90
13928;DHT22;7036;50.834;4.718;2023-05-20T04:34:49;20.00;51.90
13928;DHT22;7036;50.834;4.718;2023-05-20T04:37:16;20.00;51.80
13928;DHT22;7036;50.834;4.718;2023-05-20T04:39:43;20.00;51.80
13928;DHT22;7036;50.834;4.718;2023-05-20T04:42:11;20.00;51.50
13928;DHT22;7036;50.834;4.718;2023-05-20T04:44:38;20.00;51.80
13928;DHT22;7036;50.834;4.718;2023-05-20T04:47:05;20.00;51.20
13928;DHT22;7036;50.834;4.718;2023-05-20T04:49:33;20.00;51.90
13928;DHT22;7036;50.834;4.718;2023-05-20T04:52:01;20.00;51.40
13928;DHT22;7036;50.834;4.718;2023-05-20T04:54:28;20.00;51.90
13928;DHT22;7036;50.834;4.718;2023-05-20T04:56:55;19.90;51.20
13928;DHT22;7036;50.834;4.718;2023-05-20T04:59:22;19.90;52.00
13928;DHT22;7036;50.834;4.718;2023-05-20T05:01:50;20.00;51.60
13928;DHT22;7036;50.834;4.718;2023-05-20T05:04:18;19.90;52.10
13928;DHT22;7036;50.834;4.718;2023-05-20T05:06:49;19.90;52.80
13928;DHT22;7036;50.834;4.718;2023-05-20T05:09:16;19.90;52.00
13928;DHT22;7036;50.834;4.718;2023-05-20T05:11:43;20.00;52.00
13928;DHT22;7036;50.834;4.718;2023-05-20T05:14:10;20.00;52.00
13928;DHT22;7036;50.834;4.718;2023-05-20T05:16:38;19.90;51.40
13928;DHT22;7036;50.834;4.718;2023-05-20T05:19:06;20.00;52.20
13928;DHT22;7036;50.834;4.718;2023-05-20T05:21:33;20.00;52.10
13928;DHT22;7036;50.834;4.718;2023-05-20T05:24:00;20.00;52.10
13928;DHT22;7036;50.834;4.718;2023-05-20T05:26:28;19.90;52.20
13928;DHT22;7036;50.834;4.718;2023-05-20T05:28:56;19.90;52.60
13928;DHT22;7036;50.834;4.718;2023-05-20T05:31:24;19.90;52.70
13928;DHT22;7036;50.834;4.718;2023-05-20T05:33:52;19.90;52.30
13928;DHT22;7036;50.834;4.718;2023-05-20T05:36:19;19.90;52.20
13928;DHT22;7036;50.834;4.718;2023-05-20T05:38:47;19.90;53.00
13928;DHT22;7036;50.834;4.718;2023-05-20T05:41:15;19.90;52.20
13928;DHT22;7036;50.834;4.718;2023-05-20T05:43:43;20.00;52.00
13928;DHT22;7036;50.834;4.718;2023-05-20T05:46:10;20.00;52.30
13928;DHT22;7036;50.834;4.718;2023-05-20T05:48:38;20.00;52.30
13928;DHT22;7036;50.834;4.718;2023-05-20T05:51:05;20.00;52.20
13928;DHT22;7036;50.834;4.718;2023-05-20T05:53:33;20.00;51.80
13928;DHT22;7036;50.834;4.718;2023-05-20T05:56:01;20.00;52.50
13928;DHT22;7036;50.834;4.718;2023-05-20T05:58:28;20.00;52.30
13928;DHT22;7036;50.834;4.718;2023-05-20T06:00:56;20.10;52.60
13928;DHT22;7036;50.834;4.718;2023-05-20T06:03:24;20.10;52.70
13928;DHT22;7036;50.834;4.718;2023-05-20T06:05:52;20.10;52.50
13928;DHT22;7036;50.834;4.718;2023-05-20T06:08:20;20.10;52.80
13928;DHT22;7036;50.834;4.718;2023-05-20T06:10:48;20.10;52.80
13928;DHT22;7036;50.834;4.718;2023-05-20T06:13:16;20.20;53.00
13928;DHT22;7036;50.834;4.718;2023-05-20T06:15:44;20.20;52.80
13928;DHT22;7036;50.834;4.718;2023-05-20T06:18:14;20.20;53.70
13928;DHT22;7036;50.834;4.718;2023-05-20T06:20:40;20.20;52.90
13928;DHT22;7036;50.834;4.718;2023-05-20T06:23:08;20.30;53.00
13928;DHT22;7036;50.834;4.718;2023-05-20T06:25:36;20.30;53.10
13928;DHT22;7036;50.834;4.718;2023-05-20T06:28:03;20.30;52.90
13928;DHT22;7036;50.834;4.718;2023-05-20T06:30:31;20.40;53.30
13928;DHT22;7036;50.834;4.718;2023-05-20T06:32:59;20.40;53.10
13928;DHT22;7036;50.834;4.718;2023-05-20T06:35:27;20.40;53.30
13928;DHT22;7036;50.834;4.718;2023-05-20T06:37:54;20.40;53.20
13928;DHT22;7036;50.834;4.718;2023-05-20T06:40:22;20.40;53.50
13928;DHT22;7036;50.834;4.718;2023-05-20T06:42:50;20.50;53.60
13928;DHT22;7036;50.834;4.718;2023-05-20T06:45:17;20.50;53.40
13928;DHT22;7036;50.834;4.718;2023-05-20T06:47:45;20.50;53.70
13928;DHT22;7036;50.834;4.718;2023-05-20T06:50:13;20.50;53.70
13928;DHT22;7036;50.834;4.718;2023-05-20T06:52:41;20.50;53.80
13928;DHT22;7036;50.834;4.718;2023-05-20T06:55:09;20.50;53.90
13928;DHT22;7036;50.834;4.718;2023-05-20T06:57:37;20.60;54.00
13928;DHT22;7036;50.834;4.718;2023-05-20T07:00:05;20.60;53.90
13928;DHT22;7036;50.834;4.718;2023-05-20T07:02:32;20.60;53.90
13928;DHT22;7036;50.834;4.718;2023-05-20T07:04:59;20.60;54.00
13928;DHT22;7036;50.834;4.718;2023-05-20T07:07:26;20.60;54.20
13928;DHT22;7036;50.834;4.718;2023-05-20T07:09:54;20.60;54.10
13928;DHT22;7036;50.834;4.718;2023-05-20T07:12:22;20.50;53.20
13928;DHT22;7036;50.834;4.718;2023-05-20T07:14:50;20.30;52.90
13928;DHT22;7036;50.834;4.718;2023-05-20T07:17:18;20.20;52.90
13928;DHT22;7036;50.834;4.718;2023-05-20T07:19:47;20.20;53.00
13928;DHT22;7036;50.834;4.718;2023-05-20T07:22:14;20.20;52.90
13928;DHT22;7036;50.834;4.718;2023-05-20T07:24:42;20.20;52.90
13928;DHT22;7036;50.834;4.718;2023-05-20T07:27:10;20.20;52.90
13928;DHT22;7036;50.834;4.718;2023-05-20T07:29:38;20.30;53.10
13928;DHT22;7036;50.834;4.718;2023-05-20T07:32:07;20.40;53.00
13928;DHT22;7036;50.834;4.718;2023-05-20T07:34:33;20.40;53.00
13928;DHT22;7036;50.834;4.718;2023-05-20T07:37:00;20.40;52.80
13928;DHT22;7036;50.834;4.718;2023-05-20T07:39:27;20.40;52.80
13928;DHT22;7036;50.834;4.718;2023-05-20T07:41:54;20.50;52.80
13928;DHT22;7036;50.834;4.718;2023-05-20T07:44:23;20.50;52.80
13928;DHT22;7036;50.834;4.718;2023-05-20T07:46:49;20.50;52.70
13928;DHT22;7036;50.834;4.718;2023-05-20T07:49:17;20.60;52.90
13928;DHT22;7036;50.834;4.718;2023-05-20T07:51:45;20.60;52.90
13928;DHT22;7036;50.834;4.718;2023-05-20T07:54:14;20.60;52.90
13928;DHT22;7036;50.834;4.718;2023-05-20T07:56:41;20.60;52.90
13928;DHT22;7036;50.834;4.718;2023-05-20T07:59:09;20.60;52.70
13928;DHT22;7036;50.834;4.718;2023-05-20T08:01:37;20.60;52.80
13928;DHT22;7036;50.834;4.718;2023-05-20T08:04:04;20.60;52.70
13928;DHT22;7036;50.834;4.718;2023-05-20T08:06:32;20.60;52.80
13928;DHT22;7036;50.834;4.718;2023-05-20T08:09:01;20.60;52.70
13928;DHT22;7036;50.834;4.718;2023-05-20T08:11:28;20.70;52.70
13928;DHT22;7036;50.834;4.718;2023-05-20T08:13:57;20.70;52.70
13928;DHT22;7036;50.834;4.718;2023-05-20T08:16:24;20.70;52.60
13928;DHT22;7036;50.834;4.718;2023-05-20T08:18:52;20.70;52.60
13928;DHT22;7036;50.834;4.718;2023-05-20T08:21:21;20.60;52.70
13928;DHT22;7036;50.834;4.718;2023-05-20T08:23:48;20.70;52.60
13928;DHT22;7036;50.834;4.718;2023-05-20T08:26:16;20.70;52.70
13928;DHT22;7036;50.834;4.718;2023-05-20T08:28:43;20.60;52.50
13928;DHT22;7036;50.834;4.718;2023-05-20T08:31:11;20.70;52.60
13928;DHT22;7036;50.834;4.718;2023-05-20T08:33:39;20.70;52.70
13928;DHT22;7036;50.834;4.718;2023-05-20T08:36:06;20.70;52.60
13928;DHT22;7036;50.834;4.718;2023-05-20T08:38:33;20.70;52.60
13928;DHT22;7036;50.834;4.718;2023-05-20T08:41:01;20.70;52.80
13928;DHT22;7036;50.834;4.718;2023-05-20T08:43:28;20.70;52.70
13928;DHT22;7036;50.834;4.718;2023-05-20T08:45:55;20.70;52.70
13928;DHT22;7036;50.834;4.718;2023-05-20T08:48:24;20.70;52.90
13928;DHT22;7036;50.834;4.718;2023-05-20T08:50:52;20.70;53.00
13928;DHT22;7036;50.834;4.718;2023-05-20T08:53:21;20.70;52.90
13928;DHT22;7036;50.834;4.718;2023-05-20T08:55:55;20.70;52.90
13928;DHT22;7036;50.834;4.718;2023-05-20T08:58:20;20.70;53.60
13928;DHT22;7036;50.834;4.718;2023-05-20T09:00:48;20.80;53.00
13928;DHT22;7036;50.834;4.718;2023-05-20T09:03:16;20.80;53.20
13928;DHT22;7036;50.834;4.718;2023-05-20T09:05:44;20.80;53.30
13928;DHT22;7036;50.834;4.718;2023-05-20T09:08:11;20.80;53.20
13928;DHT22;7036;50.834;4.718;2023-05-20T09:10:39;20.80;53.20
13928;DHT22;7036;50.834;4.718;2023-05-20T09:13:07;20.80;53.20
13928;DHT22;7036;50.834;4.718;2023-05-20T09:15:35;20.70;53.10
13928;DHT22;7036;50.834;4.718;2023-05-20T09:18:04;20.70;53.30
13928;DHT22;7036;50.834;4.718;2023-05-20T09:20:34;20.70;53.30
13928;DHT22;7036;50.834;4.718;2023-05-20T09:23:00;20.70;53.20
13928;DHT22;7036;50.834;4.718;2023-05-20T09:25:27;20.80;53.10
13928;DHT22;7036;50.834;4.718;2023-05-20T09:27:55;20.80;53.20
13928;DHT22;7036;50.834;4.718;2023-05-20T09:30:22;20.80;53.40
13928;DHT22;7036;50.834;4.718;2023-05-20T09:32:54;20.80;53.40
13928;DHT22;7036;50.834;4.718;2023-05-20T09:35:21;20.80;53.30
13928;DHT22;7036;50.834;4.718;2023-05-20T09:37:50;20.80;53.50
13928;DHT22;7036;50.834;4.718;2023-05-20T09:40:15;20.80;53.40
13928;DHT22;7036;50.834;4.718;2023-05-20T09:42:46;20.80;53.60
13928;DHT22;7036;50.834;4.718;2023-05-20T09:45:10;20.80;53.50
13928;DHT22;7036;50.834;4.718;2023-05-20T09:47:38;20.80;53.60
13928;DHT22;7036;50.834;4.718;2023-05-20T09:50:06;20.80;53.70
13928;DHT22;7036;50.834;4.718;2023-05-20T09:52:36;20.80;53.60
13928;DHT22;7036;50.834;4.718;2023-05-20T09:55:03;20.80;53.50
13928;DHT22;7036;50.834;4.718;2023-05-20T09:57:33;20.80;53.80
13928;DHT22;7036;50.834;4.718;2023-05-20T10:00:00;20.80;53.70
13928;DHT22;7036;50.834;4.718;2023-05-20T10:02:27;20.90;53.80
13928;DHT22;7036;50.834;4.718;2023-05-20T10:04:54;20.90;53.60
13928;DHT22;7036;50.834;4.718;2023-05-20T10:07:45;20.80;54.20
13928;DHT22;7036;50.834;4.718;2023-05-20T10:12:52;20.90;53.50
13928;DHT22;7036;50.834;4.718;2023-05-20T10:15:27;20.90;53.60
13928;DHT22;7036;50.834;4.718;2023-05-20T10:17:52;20.90;53.60
13928;DHT22;7036;50.834;4.718;2023-05-20T10:20:16;20.90;53.60
13928;DHT22;7036;50.834;4.718;2023-05-20T10:22:53;20.90;53.70
13928;DHT22;7036;50.834;4.718;2023-05-20T10:25:22;20.90;53.70
13928;DHT22;7036;50.834;4.718;2023-05-20T10:27:46;20.90;53.80
13928;DHT22;7036;50.834;4.718;2023-05-20T10:30:22;20.90;53.60
13928;DHT22;7036;50.834;4.718;2023-05-20T10:32:52;20.90;53.60
13928;DHT22;7036;50.834;4.718;2023-05-20T10:35:21;20.90;53.60
13928;DHT22;7036;50.834;4.718;2023-05-20T10:37:48;20.90;53.70
13928;DHT22;7036;50.834;4.718;2023-05-20T10:40:15;20.90;53.60
13928;DHT22;7036;50.834;4.718;2023-05-20T10:42:43;20.90;53.80
13928;DHT22;7036;50.834;4.718;2023-05-20T10:45:11;21.00;53.80
13928;DHT22;7036;50.834;4.718;2023-05-20T10:47:52;20.90;53.60
13928;DHT22;7036;50.834;4.718;2023-05-20T10:50:24;20.90;53.60
13928;DHT22;7036;50.834;4.718;2023-05-20T10:52:38;21.00;53.70
13928;DHT22;7036;50.834;4.718;2023-05-20T10:55:05;20.90;53.70
13928;DHT22;7036;50.834;4.718;2023-05-20T10:57:32;20.90;53.70
13928;DHT22;7036;50.834;4.718;2023-05-20T11:00:00;21.00;53.90
13928;DHT22;7036;50.834;4.718;2023-05-20T11:02:28;21.00;54.00
13928;DHT22;7036;50.834;4.718;2023-05-20T11:04:56;21.00;53.90
13928;DHT22;7036;50.834;4.718;2023-05-20T11:09:53;21.00;53.90
13928;DHT22;7036;50.834;4.718;2023-05-20T11:12:22;21.00;54.70
13928;DHT22;7036;50.834;4.718;2023-05-20T11:14:49;21.00;54.00
13928;DHT22;7036;50.834;4.718;2023-05-20T11:17:17;21.00;54.00
13928;DHT22;7036;50.834;4.718;2023-05-20T11:19:45;21.00;54.00
13928;DHT22;7036;50.834;4.718;2023-05-20T11:22:12;21.00;53.80
13928;DHT22;7036;50.834;4.718;2023-05-20T11:24:39;21.00;53.90
13928;DHT22;7036;50.834;4.718;2023-05-20T11:27:07;21.10;54.00
13928;DHT22;7036;50.834;4.718;2023-05-20T11:29:35;21.00;54.10
13928;DHT22;7036;50.834;4.718;2023-05-20T11:32:03;21.00;53.90
13928;DHT22;7036;50.834;4.718;2023-05-20T11:34:36;21.00;53.80
13928;DHT22;7036;50.834;4.718;2023-05-20T11:37:00;21.00;53.70
13928;DHT22;7036;50.834;4.718;2023-05-20T11:39:30;21.00;53.60
13928;DHT22;7036;50.834;4.718;2023-05-20T11:41:57;21.00;53.70
13928;DHT22;7036;50.834;4.718;2023-05-20T11:44:25;20.90;53.90
13928;DHT22;7036;50.834;4.718;2023-05-20T11:46:58;21.00;54.00
13928;DHT22;7036;50.834;4.718;2023-05-20T11:49:21;21.00;54.00
13928;DHT22;7036;50.834;4.718;2023-05-20T11:51:49;21.00;54.00
13928;DHT22;7036;50.834;4.718;2023-05-20T11:54:17;21.00;54.10
13928;DHT22;7036;50.834;4.718;2023-05-20T11:56:45;21.00;54.10
13928;DHT22;7036;50.834;4.718;2023-05-20T11:59:13;21.00;54.00
13928;DHT22;7036;50.834;4.718;2023-05-20T12:01:40;21.10;54.00
13928;DHT22;7036;50.834;4.718;2023-05-20T12:04:08;21.10;54.10
13928;DHT22;7036;50.834;4.718;2023-05-20T12:06:36;21.10;54.10
13928;DHT22;7036;50.834;4.718;2023-05-20T12:09:03;21.10;54.00
13928;DHT22;7036;50.834;4.718;2023-05-20T12:11:30;21.10;54.00
13928;DHT22;7036;50.834;4.718;2023-05-20T12:13:59;21.10;54.10
13928;DHT22;7036;50.834;4.718;2023-05-20T12:16:25;21.10;54.10
13928;DHT22;7036;50.834;4.718;2023-05-20T12:18:52;21.10;54.80
13928;DHT22;7036;50.834;4.718;2023-05-20T12:21:21;21.10;54.30
13928;DHT22;7036;50.834;4.718;2023-05-20T12:23:48;21.10;54.30
13928;DHT22;7036;50.834;4.718;2023-05-20T12:26:16;21.10;54.20
13928;DHT22;7036;50.834;4.718;2023-05-20T12:28:44;21.10;54.30
13928;DHT22;7036;50.834;4.718;2023-05-20T12:31:12;21.10;55.00
13928;DHT22;7036;50.834;4.718;2023-05-20T12:33:40;21.20;54.40
13928;DHT22;7036;50.834;4.718;2023-05-20T12:36:07;21.10;54.20
13928;DHT22;7036;50.834;4.718;2023-05-20T12:38:35;21.20;54.40
13928;DHT22;7036;50.834;4.718;2023-05-20T12:41:03;21.20;54.40
13928;DHT22;7036;50.834;4.718;2023-05-20T12:43:31;21.20;54.40
13928;DHT22;7036;50.834;4.718;2023-05-20T12:45:59;21.20;54.50
13928;DHT22;7036;50.834;4.718;2023-05-20T12:48:28;21.20;54.50
13928;DHT22;7036;50.834;4.718;2023-05-20T12:50:54;21.20;54.30
13928;DHT22;7036;50.834;4.718;2023-05-20T12:53:22;21.20;54.50
13928;DHT22;7036;50.834;4.718;2023-05-20T12:55:50;21.20;54.50
13928;DHT22;7036;50.834;4.718;2023-05-20T12:58:18;21.20;54.50
13928;DHT22;7036;50.834;4.718;2023-05-20T13:00:46;21.20;54.40
13928;DHT22;7036;50.834;4.718;2023-05-20T13:03:14;21.20;54.50
13928;DHT22;7036;50.834;4.718;2023-05-20T13:05:41;21.20;54.50
13928;DHT22;7036;50.834;4.718;2023-05-20T13:08:09;21.20;54.50
13928;DHT22;7036;50.834;4.718;2023-05-20T13:10:37;21.20;55.20
13928;DHT22;7036;50.834;4.718;2023-05-20T13:13:06;21.20;54.50
13928;DHT22;7036;50.834;4.718;2023-05-20T13:15:33;21.20;54.40
13928;DHT22;7036;50.834;4.718;2023-05-20T13:18:02;21.20;54.50
13928;DHT22;7036;50.834;4.718;2023-05-20T13:20:29;21.30;55.30
13928;DHT22;7036;50.834;4.718;2023-05-20T13:22:57;21.30;54.60
13928;DHT22;7036;50.834;4.718;2023-05-20T13:25:24;21.20;54.40
13928;DHT22;7036;50.834;4.718;2023-05-20T13:27:54;21.30;54.70
13928;DHT22;7036;50.834;4.718;2023-05-20T13:30:20;21.20;54.50
13928;DHT22;7036;50.834;4.718;2023-05-20T13:32:48;21.30;54.40
13928;DHT22;7036;50.834;4.718;2023-05-20T13:35:15;21.30;54.30
13928;DHT22;7036;50.834;4.718;2023-05-20T13:37:42;21.20;54.10
13928;DHT22;7036;50.834;4.718;2023-05-20T13:40:10;21.20;54.30
13928;DHT22;7036;50.834;4.718;2023-05-20T13:42:37;21.20;54.20
13928;DHT22;7036;50.834;4.718;2023-05-20T13:45:04;21.20;54.20
13928;DHT22;7036;50.834;4.718;2023-05-20T13:47:32;21.20;54.10
13928;DHT22;7036;50.834;4.718;2023-05-20T13:49:59;21.20;54.10
13928;DHT22;7036;50.834;4.718;2023-05-20T13:52:26;21.20;54.10
13928;DHT22;7036;50.834;4.718;2023-05-20T13:54:54;21.30;54.30
13928;DHT22;7036;50.834;4.718;2023-05-20T13:57:22;21.30;54.30
13928;DHT22;7036;50.834;4.718;2023-05-20T13:59:50;21.20;54.10
13928;DHT22;7036;50.834;4.718;2023-05-20T14:02:17;21.30;54.20
13928;DHT22;7036;50.834;4.718;2023-05-20T14:04:45;21.30;54.30
13928;DHT22;7036;50.834;4.718;2023-05-20T14:07:13;21.30;54.30
13928;DHT22;7036;50.834;4.718;2023-05-20T14:09:40;21.30;54.10
13928;DHT22;7036;50.834;4.718;2023-05-20T14:12:08;21.30;54.40
13928;DHT22;7036;50.834;4.718;2023-05-20T14:14:36;21.30;54.20
13928;DHT22;7036;50.834;4.718;2023-05-20T14:17:03;21.30;54.20
13928;DHT22;7036;50.834;4.718;2023-05-20T14:19:30;21.30;54.20
13928;DHT22;7036;50.834;4.718;2023-05-20T14:21:58;21.30;54.30
13928;DHT22;7036;50.834;4.718;2023-05-20T14:24:26;21.30;54.20
13928;DHT22;7036;50.834;4.718;2023-05-20T14:26:52;21.30;54.30
13928;DHT22;7036;50.834;4.718;2023-05-20T14:29:20;21.30;54.00
13928;DHT22;7036;50.834;4.718;2023-05-20T14:31:48;21.20;53.90
13928;DHT22;7036;50.834;4.718;2023-05-20T14:34:16;21.20;53.80
13928;DHT22;7036;50.834;4.718;2023-05-20T14:36:44;21.20;53.70
13928;DHT22;7036;50.834;4.718;2023-05-20T14:39:12;21.20;54.00
13928;DHT22;7036;50.834;4.718;2023-05-20T14:41:40;21.20;54.00
13928;DHT22;7036;50.834;4.718;2023-05-20T14:44:07;21.20;53.90
13928;DHT22;7036;50.834;4.718;2023-05-20T14:46:34;21.20;53.90
13928;DHT22;7036;50.834;4.718;2023-05-20T14:49:01;21.20;54.00
13928;DHT22;7036;50.834;4.718;2023-05-20T14:51:28;21.20;54.00
13928;DHT22;7036;50.834;4.718;2023-05-20T14:53:56;21.20;54.00
13928;DHT22;7036;50.834;4.718;2023-05-20T14:56:23;21.20;54.00
13928;DHT22;7036;50.834;4.718;2023-05-20T14:58:50;21.20;54.10
13928;DHT22;7036;50.834;4.718;2023-05-20T15:01:18;21.30;54.20
13928;DHT22;7036;50.834;4.718;2023-05-20T15:03:45;21.30;54.30
13928;DHT22;7036;50.834;4.718;2023-05-20T15:06:12;21.30;54.20
13928;DHT22;7036;50.834;4.718;2023-05-20T15:08:40;21.20;54.40
13928;DHT22;7036;50.834;4.718;2023-05-20T15:11:08;21.20;54.30
13928;DHT22;7036;50.834;4.718;2023-05-20T15:13:35;21.20;54.30
13928;DHT22;7036;50.834;4.718;2023-05-20T15:16:02;21.20;54.30
13928;DHT22;7036;50.834;4.718;2023-05-20T15:18:29;21.20;54.30
13928;DHT22;7036;50.834;4.718;2023-05-20T15:20:57;21.30;54.40
13928;DHT22;7036;50.834;4.718;2023-05-20T15:23:27;21.30;54.30
13928;DHT22;7036;50.834;4.718;2023-05-20T15:25:54;21.30;54.30
13928;DHT22;7036;50.834;4.718;2023-05-20T15:28:22;21.30;54.50
13928;DHT22;7036;50.834;4.718;2023-05-20T15:30:51;21.30;54.40
13928;DHT22;7036;50.834;4.718;2023-05-20T15:33:17;21.30;54.40
13928;DHT22;7036;50.834;4.718;2023-05-20T15:35:45;21.30;54.50
13928;DHT22;7036;50.834;4.718;2023-05-20T15:38:13;21.30;54.50
13928;DHT22;7036;50.834;4.718;2023-05-20T15:40:40;21.30;54.40
13928;DHT22;7036;50.834;4.718;2023-05-20T15:43:07;21.30;54.30
13928;DHT22;7036;50.834;4.718;2023-05-20T15:45:35;21.30;54.40
13928;DHT22;7036;50.834;4.718;2023-05-20T15:48:03;21.30;54.50
13928;DHT22;7036;50.834;4.718;2023-05-20T15:50:30;21.30;54.40
13928;DHT22;7036;50.834;4.718;2023-05-20T15:52:58;21.40;54.50